Time;durP1;ratioP1;P1;durP2;ratioP2;P2;SDS_P1;SDS_P2;PMS_P1;PMS_P2;Temp;Humidity;BMP_temperature;BMP_pressure;BME280_temperature;BME280_humidity;BME280_pressure;Samples;Min_cycle;Max_cycle;Signal;HPM_P1;HPM_P2
2022/06/20 00:02:01;;;;;;;19.00;8.00;;;24.00;95.80;;;;;;5004020;28;20431;-76
2022/06/20 00:04:27;;;;;;;34.93;8.37;;;23.80;98.60;;;;;;4990958;28;20479;-76
2022/06/20 00:06:53;;;;;;;17.10;8.80;;;23.50;99.90;;;;;;4990966;28;20851;-76
2022/06/20 00:09:18;;;;;;;15.73;7.60;;;23.40;99.90;;;;;;4992267;28;20432;-76
2022/06/20 00:11:47;;;;;;;17.37;8.37;;;23.20;99.90;;;;;;4990572;28;20666;-75
2022/06/20 00:14:17;;;;;;;24.63;8.27;;;23.00;99.90;;;;;;4992206;28;20217;-75
2022/06/20 00:16:43;;;;;;;21.70;9.40;;;22.90;99.90;;;;;;4991038;28;20905;-75
2022/06/20 00:19:10;;;;;;;17.40;8.70;;;22.70;99.90;;;;;;4992792;28;20416;-75
2022/06/20 00:21:37;;;;;;;22.00;8.83;;;22.60;99.90;;;;;;4991971;28;20427;-75
2022/06/20 00:24:03;;;;;;;21.10;8.77;;;22.50;99.90;;;;;;4993008;28;20447;-75
2022/06/20 00:26:29;;;;;;;20.23;8.83;;;22.40;99.90;;;;;;4998253;28;20445;-76
2022/06/20 00:28:55;;;;;;;25.87;9.30;;;22.30;99.90;;;;;;4992278;28;20215;-75
2022/06/20 00:31:21;;;;;;;18.43;8.90;;;22.20;99.90;;;;;;4992156;28;20895;-75
2022/06/20 00:33:47;;;;;;;20.30;9.47;;;22.10;99.90;;;;;;4992497;28;20448;-77
2022/06/20 00:36:13;;;;;;;23.73;8.50;;;22.00;99.90;;;;;;4990814;28;20427;-77
2022/06/20 00:38:42;;;;;;;15.60;8.00;;;22.10;99.90;;;;;;4991022;28;20179;-77
2022/06/20 00:41:15;;;;;;;23.00;8.57;;;22.10;99.90;;;;;;4992443;28;20433;-76
2022/06/20 00:43:45;;;;;;;17.87;8.60;;;22.30;99.90;;;;;;5007386;28;20442;-77
2022/06/20 00:46:30;;;;;;;17.93;9.37;;;22.30;99.90;;;;;;4992968;28;20416;-77
2022/06/20 00:49:16;;;;;;;23.63;9.13;;;22.30;99.90;;;;;;4990774;28;20478;-77
2022/06/20 00:51:50;;;;;;;25.50;8.70;;;22.10;99.90;;;;;;4992243;28;20538;-77
2022/06/20 00:54:22;;;;;;;27.17;9.07;;;21.80;99.90;;;;;;4992371;28;20442;-77
2022/06/20 00:57:02;;;;;;;15.50;7.90;;;21.70;99.90;;;;;;4991026;28;20419;-77
2022/06/20 00:59:34;;;;;;;19.93;8.60;;;21.70;99.90;;;;;;4993059;28;20437;-78
2022/06/20 01:02:03;;;;;;;27.47;8.60;;;21.80;99.90;;;;;;4992991;28;20427;-77
2022/06/20 01:04:37;;;;;;;25.23;8.60;;;21.90;99.90;;;;;;4993077;28;20509;-78
2022/06/20 01:07:08;;;;;;;24.37;9.70;;;21.80;99.90;;;;;;4991721;28;20467;-77
2022/06/20 01:09:38;;;;;;;18.73;8.73;;;21.70;99.90;;;;;;4975584;28;20449;-77
2022/06/20 01:12:09;;;;;;;18.03;8.90;;;21.80;99.90;;;;;;4992548;28;20469;-77
2022/06/20 01:14:39;;;;;;;23.37;8.57;;;21.80;99.90;;;;;;4992186;28;20603;-78
2022/06/20 01:17:14;;;;;;;18.50;7.10;;;21.70;99.90;;;;;;5007302;28;20432;-78
2022/06/20 01:20:02;;;;;;;14.10;7.53;;;21.80;99.90;;;;;;4992782;28;20418;-78
2022/06/20 01:22:38;;;;;;;17.80;7.80;;;21.80;99.90;;;;;;4992039;28;20417;-76
2022/06/20 01:25:27;;;;;;;16.67;7.83;;;21.80;99.90;;;;;;4992267;28;20513;-76
2022/06/20 01:27:53;;;;;;;16.20;8.07;;;21.70;99.90;;;;;;4992211;28;20410;-76
2022/06/20 01:30:23;;;;;;;25.70;8.43;;;21.70;99.90;;;;;;4990450;28;20423;-76
2022/06/20 01:32:49;;;;;;;19.43;7.60;;;21.70;99.90;;;;;;4990525;28;20474;-76
2022/06/20 01:37:23;;;;;;;23.60;8.90;;;21.70;99.90;;;;;;4991640;28;20418;-75
2022/06/20 01:38:04;;;;;;;25.60;8.40;;;21.60;99.90;;;;;;4991784;28;20447;-77
2022/06/20 01:40:30;;;;;;;20.33;9.10;;;21.60;99.90;;;;;;4990239;28;20426;-77
2022/06/20 01:42:57;;;;;;;19.50;8.30;;;21.60;99.90;;;;;;4991459;28;20462;-76
2022/06/20 01:48:15;;;;;;;14.87;7.60;;;21.60;99.90;;;;;;4991861;28;20490;-76
2022/06/20 01:50:44;;;;;;;18.93;8.40;;;21.70;99.90;;;;;;4990319;28;21200;-76
2022/06/20 01:53:12;;;;;;;15.23;7.47;;;21.60;99.90;;;;;;4991052;28;20465;-76
2022/06/20 01:55:41;;;;;;;15.30;8.57;;;21.60;99.90;;;;;;4990242;28;20527;-76
2022/06/20 01:58:26;;;;;;;23.57;8.50;;;21.60;99.90;;;;;;4990644;28;20434;-77
2022/06/20 02:00:52;;;;;;;24.77;8.20;;;21.50;99.90;;;;;;4991403;28;20422;-77
2022/06/20 02:03:20;;;;;;;17.30;8.70;;;21.50;99.90;;;;;;4989646;28;20457;-76
2022/06/20 02:05:49;;;;;;;25.90;8.30;;;21.50;99.90;;;;;;4991231;28;20421;-77
2022/06/20 02:08:18;;;;;;;16.93;8.27;;;21.50;99.90;;;;;;4989850;28;20433;-77
2022/06/20 02:10:53;;;;;;;20.23;7.90;;;21.50;99.90;;;;;;4989774;28;20439;-77
2022/06/20 02:13:21;;;;;;;30.87;8.70;;;21.50;99.90;;;;;;4990876;28;20563;-76
2022/06/20 02:15:49;;;;;;;16.87;8.07;;;21.40;99.90;;;;;;4991182;28;20424;-76
2022/06/20 02:18:17;;;;;;;20.97;7.43;;;21.20;99.90;;;;;;5005994;28;20802;-77
2022/06/20 02:20:46;;;;;;;17.10;8.30;;;21.20;99.90;;;;;;4990823;28;20436;-78
2022/06/20 02:23:34;;;;;;;23.40;9.90;;;21.20;99.90;;;;;;4992768;28;20506;-78
2022/06/20 02:26:04;;;;;;;14.40;7.60;;;21.10;99.90;;;;;;4990053;28;20433;-77
2022/06/20 02:28:57;;;;;;;14.00;8.57;;;21.10;99.90;;;;;;5005321;28;20545;-77
2022/06/20 02:31:23;;;;;;;16.43;7.60;;;21.10;99.90;;;;;;4990592;28;20476;-77
2022/06/20 02:33:50;;;;;;;10.67;7.57;;;21.20;99.90;;;;;;4989284;28;20527;-77
2022/06/20 02:36:16;;;;;;;23.13;7.97;;;21.20;99.90;;;;;;4989706;28;21285;-78
2022/06/20 02:38:43;;;;;;;25.77;9.13;;;21.30;99.90;;;;;;4990998;28;20942;-77
2022/06/20 02:41:11;;;;;;;18.67;9.10;;;21.30;99.90;;;;;;4990004;28;20899;-77
2022/06/20 02:44:00;;;;;;;21.43;7.60;;;21.30;99.90;;;;;;4990547;28;20454;-77
2022/06/20 02:46:27;;;;;;;29.00;9.00;;;21.20;99.90;;;;;;4997019;28;20425;-79
2022/06/20 02:48:55;;;;;;;24.50;8.10;;;21.30;99.90;;;;;;5010417;28;20463;-79
2022/06/20 02:51:26;;;;;;;19.80;8.23;;;21.40;99.90;;;;;;4993084;28;20462;-78
2022/06/20 02:54:02;;;;;;;15.73;7.70;;;21.40;99.90;;;;;;5008807;28;21326;-77
2022/06/20 02:56:36;;;;;;;18.83;7.77;;;21.50;99.90;;;;;;4994105;28;20413;-78
2022/06/20 02:59:06;;;;;;;20.10;8.27;;;21.50;99.90;;;;;;4993330;28;20844;-78
2022/06/20 03:01:37;;;;;;;13.83;7.83;;;21.50;99.90;;;;;;4992603;28;20422;-78
2022/06/20 03:04:04;;;;;;;20.40;7.40;;;21.60;99.90;;;;;;5009322;28;20461;-78
2022/06/20 03:06:42;;;;;;;16.53;7.57;;;21.70;99.90;;;;;;4993328;28;20925;-78
2022/06/20 03:09:12;;;;;;;14.30;8.03;;;21.60;99.90;;;;;;4993856;28;20436;-78
2022/06/20 03:11:39;;;;;;;28.77;8.50;;;21.60;99.90;;;;;;4991841;28;20480;-77
2022/06/20 03:14:10;;;;;;;22.40;8.03;;;21.70;99.90;;;;;;4990678;28;20561;-77
2022/06/20 03:16:39;;;;;;;37.00;9.20;;;21.70;99.90;;;;;;5006729;28;21247;-78
2022/06/20 03:19:12;;;;;;;15.67;7.97;;;21.90;99.90;;;;;;4992822;28;20465;-78
2022/06/20 03:21:42;;;;;;;16.50;7.93;;;22.10;99.90;;;;;;4991026;28;20536;-77
2022/06/20 03:24:14;;;;;;;21.10;8.47;;;22.20;99.90;;;;;;4990645;28;20919;-77
2022/06/20 03:26:40;;;;;;;16.10;8.53;;;22.30;99.90;;;;;;4991405;28;20945;-77
2022/06/20 03:29:09;;;;;;;21.33;9.87;;;22.30;99.90;;;;;;4991895;28;20465;-77
2022/06/20 03:31:35;;;;;;;21.00;8.77;;;22.20;99.90;;;;;;4995023;28;20222;-78
2022/06/20 03:34:00;;;;;;;20.57;8.07;;;22.20;99.90;;;;;;4991653;28;20518;-77
2022/06/20 03:36:27;;;;;;;23.10;8.00;;;22.10;99.90;;;;;;4993842;28;20722;-78
2022/06/20 03:38:55;;;;;;;24.37;8.80;;;22.10;99.90;;;;;;4996322;28;20195;-78
2022/06/20 03:41:24;;;;;;;23.27;9.10;;;22.10;99.90;;;;;;4995909;28;20497;-78
2022/06/20 03:44:00;;;;;;;19.07;9.67;;;22.00;99.90;;;;;;4995439;28;20441;-78
2022/06/20 03:46:30;;;;;;;17.40;8.40;;;21.80;99.90;;;;;;4997458;28;20422;-78
2022/06/20 03:48:59;;;;;;;28.63;9.27;;;21.90;99.90;;;;;;4995462;28;20430;-78
2022/06/20 03:51:30;;;;;;;16.97;8.63;;;21.80;99.90;;;;;;4996656;28;21100;-78
2022/06/20 03:54:06;;;;;;;14.73;7.97;;;21.80;99.90;;;;;;4996764;28;20438;-78
2022/06/20 03:56:41;;;;;;;23.07;8.10;;;21.80;99.90;;;;;;4998979;28;20445;-79
2022/06/20 03:59:27;;;;;;;17.07;8.33;;;21.90;99.90;;;;;;4995384;28;20588;-75
2022/06/20 04:02:02;;;;;;;25.53;9.57;;;21.80;99.90;;;;;;4991778;28;20512;-75
2022/06/20 04:04:35;;;;;;;23.53;8.67;;;21.90;99.90;;;;;;4992710;28;20452;-75
2022/06/20 04:07:08;;;;;;;21.80;9.57;;;22.00;99.90;;;;;;4991342;28;20999;-76
2022/06/20 04:12:49;;;;;;;28.53;9.10;;;22.30;99.90;;;;;;4992808;28;20514;-77
2022/06/20 04:15:22;;;;;;;17.87;8.43;;;22.40;99.90;;;;;;4980561;28;20439;-76
2022/06/20 04:20:48;;;;;;;18.13;8.10;;;22.50;99.90;;;;;;4991483;28;20461;-76
2022/06/20 04:23:32;;;;;;;17.90;8.10;;;22.70;99.90;;;;;;5005865;28;20452;-76
2022/06/20 04:26:07;;;;;;;23.17;7.93;;;22.90;99.90;;;;;;4989371;28;20628;-77
2022/06/20 04:28:41;;;;;;;20.60;7.87;;;23.10;99.90;;;;;;4990976;28;20414;-76
2022/06/20 04:31:16;;;;;;;12.93;7.60;;;23.30;99.90;;;;;;4973838;28;21022;-76
2022/06/20 04:33:45;;;;;;;18.40;8.00;;;23.50;99.90;;;;;;4990814;28;20437;-76
2022/06/20 04:36:19;;;;;;;15.97;8.20;;;23.50;99.90;;;;;;4990732;28;21007;-76
2022/06/20 04:39:01;;;;;;;22.83;9.60;;;23.60;99.90;;;;;;4990841;28;20415;-75
2022/06/20 04:41:37;;;;;;;26.87;8.80;;;23.50;99.90;;;;;;5005351;28;20505;-75
2022/06/20 04:44:22;;;;;;;25.97;9.77;;;23.40;99.90;;;;;;4990485;28;20466;-75
2022/06/20 04:47:13;;;;;;;28.37;13.13;;;23.20;99.90;;;;;;4990297;28;21014;-76
2022/06/20 04:49:39;;;;;;;30.30;14.37;;;22.60;99.90;;;;;;4989873;28;20855;-75
2022/06/20 04:52:10;;;;;;;24.17;13.33;;;22.00;99.90;;;;;;4990277;28;20555;-76
2022/06/20 04:54:36;;;;;;;28.03;14.23;;;21.60;99.90;;;;;;4987620;28;20447;-76
2022/06/20 04:57:02;;;;;;;28.23;13.47;;;21.20;99.90;;;;;;4990114;28;21065;-76
2022/06/20 04:59:31;;;;;;;23.87;13.23;;;20.80;99.90;;;;;;4988936;28;20216;-75
2022/06/20 05:01:59;;;;;;;27.40;12.93;;;20.50;99.90;;;;;;4989009;28;20431;-76
2022/06/20 05:04:38;;;;;;;21.77;13.10;;;20.30;99.90;;;;;;4988545;28;20520;-75
2022/06/20 05:07:10;;;;;;;26.83;13.60;;;20.30;99.90;;;;;;4990572;28;20413;-75
2022/06/20 05:09:48;;;;;;;23.67;11.53;;;20.40;99.90;;;;;;4990799;28;20429;-75
2022/06/20 05:12:27;;;;;;;22.67;12.17;;;20.30;99.90;;;;;;4991727;28;20479;-76
2022/06/20 05:15:06;;;;;;;25.37;11.57;;;20.20;99.90;;;;;;4990689;28;20957;-76
2022/06/20 05:17:33;;;;;;;32.17;13.70;;;20.30;99.90;;;;;;4989075;28;20427;-76
2022/06/20 05:20:05;;;;;;;24.00;13.03;;;20.40;99.90;;;;;;4990522;28;20892;-75
2022/06/20 05:22:37;;;;;;;31.87;13.50;;;20.40;99.90;;;;;;4990391;28;20496;-76
2022/06/20 05:25:07;;;;;;;22.37;13.20;;;20.30;99.90;;;;;;4990396;28;20910;-75
2022/06/20 05:27:44;;;;;;;19.67;12.43;;;20.00;99.90;;;;;;4972323;28;20509;-76
2022/06/20 05:30:17;;;;;;;25.10;12.13;;;19.90;99.90;;;;;;4989538;28;20416;-75
2022/06/20 05:32:50;;;;;;;18.20;12.83;;;19.80;99.90;;;;;;4989852;28;20476;-75
2022/06/20 05:36:00;;;;;;;25.67;13.70;;;19.80;99.90;;;;;;4990080;28;20409;-76
2022/06/20 05:38:56;;;;;;;21.73;12.33;;;19.90;99.90;;;;;;4910579;29;21128;-75
2022/06/20 05:41:22;;;;;;;13.33;9.27;;;20.00;99.90;;;;;;4976365;28;20432;-75
2022/06/20 05:43:48;;;;;;;20.40;9.70;;;20.20;99.90;;;;;;4989707;28;20441;-76
2022/06/20 05:46:27;;;;;;;20.77;9.90;;;20.30;99.90;;;;;;5004695;28;21066;-76
2022/06/20 05:49:06;;;;;;;17.53;8.97;;;20.40;99.90;;;;;;4989938;28;20651;-76
2022/06/20 05:51:37;;;;;;;11.93;7.47;;;20.60;99.90;;;;;;4989589;28;20465;-76
2022/06/20 05:54:22;;;;;;;20.60;7.47;;;20.80;99.90;;;;;;4988919;28;20523;-76
2022/06/20 05:56:53;;;;;;;23.90;8.37;;;21.00;99.90;;;;;;4989163;28;20417;-75
2022/06/20 05:59:28;;;;;;;17.73;7.57;;;21.20;99.90;;;;;;4986910;28;20432;-75
2022/06/20 06:02:12;;;;;;;13.00;6.50;;;21.40;99.90;;;;;;4989250;28;20563;-75
2022/06/20 06:04:46;;;;;;;15.87;6.97;;;21.50;99.90;;;;;;4987987;28;20452;-75
2022/06/20 06:07:19;;;;;;;13.10;7.30;;;21.70;99.90;;;;;;4989898;28;20938;-75
2022/06/20 06:09:54;;;;;;;16.67;6.57;;;21.80;99.90;;;;;;4989516;28;20429;-75
2022/06/20 06:12:50;;;;;;;13.73;5.97;;;21.90;99.90;;;;;;4989451;28;20980;-75
2022/06/20 06:16:46;;;;;;;26.40;6.90;;;22.00;99.90;;;;;;4987996;28;20519;-75
2022/06/20 06:18:36;;;;;;;14.13;7.50;;;22.10;99.90;;;;;;4988904;28;20417;-75
2022/06/20 06:21:02;;;;;;;10.10;6.27;;;22.30;99.90;;;;;;4987891;28;21258;-75
2022/06/20 06:23:28;;;;;;;10.80;6.40;;;22.40;99.90;;;;;;4989104;28;20455;-75
2022/06/20 06:25:54;;;;;;;16.97;9.47;;;22.50;99.90;;;;;;4988684;28;20510;-75
2022/06/20 06:28:23;;;;;;;18.37;10.23;;;22.50;99.90;;;;;;4988936;28;20454;-75
2022/06/20 06:31:02;;;;;;;22.27;11.27;;;22.40;99.90;;;;;;4988903;28;20476;-75
2022/06/20 06:33:57;;;;;;;22.33;10.70;;;22.20;99.90;;;;;;4988594;28;20844;-75
2022/06/20 06:36:37;;;;;;;27.47;12.43;;;22.10;99.90;;;;;;4987062;28;20808;-75
2022/06/20 06:39:08;;;;;;;22.47;10.90;;;22.10;99.90;;;;;;4988541;28;20414;-75
2022/06/20 06:41:38;;;;;;;28.37;10.37;;;22.10;99.90;;;;;;4988595;28;20415;-75
2022/06/20 06:44:19;;;;;;;13.00;6.00;;;22.20;99.90;;;;;;4988407;28;20473;-74
2022/06/20 06:46:50;;;;;;;13.00;6.90;;;22.40;99.90;;;;;;4988346;28;20413;-74
2022/06/20 06:49:19;;;;;;;15.77;7.77;;;22.30;99.90;;;;;;4988381;28;20407;-74
2022/06/20 06:52:04;;;;;;;19.30;6.73;;;22.30;99.90;;;;;;4987620;28;20487;-74
2022/06/20 06:54:42;;;;;;;16.90;7.13;;;22.20;99.90;;;;;;4988092;28;20946;-75
2022/06/20 06:57:39;;;;;;;10.13;6.60;;;22.20;99.90;;;;;;4988085;28;20528;-75
2022/06/20 07:00:04;;;;;;;11.00;6.63;;;22.30;99.90;;;;;;4985544;28;20436;-75
2022/06/20 07:02:40;;;;;;;12.80;6.90;;;22.40;99.90;;;;;;4987891;28;20415;-75
2022/06/20 07:05:09;;;;;;;14.60;5.93;;;22.50;99.90;;;;;;4987990;28;20257;-75
2022/06/20 07:07:43;;;;;;;10.70;6.40;;;22.50;99.90;;;;;;4987774;28;20963;-75
2022/06/20 07:10:18;;;;;;;14.77;6.37;;;22.60;99.90;;;;;;4987760;28;20603;-75
2022/06/20 07:12:49;;;;;;;12.20;5.17;;;22.80;99.90;;;;;;4987249;28;20832;-75
2022/06/20 07:15:20;;;;;;;8.87;4.77;;;23.00;99.90;;;;;;4987978;28;20824;-74
2022/06/20 07:17:53;;;;;;;17.00;4.73;;;23.30;99.90;;;;;;4986312;28;20432;-75
2022/06/20 07:20:21;;;;;;;14.37;4.70;;;23.50;99.90;;;;;;5002639;28;20425;-74
2022/06/20 07:22:48;;;;;;;8.97;5.70;;;23.60;99.90;;;;;;4987752;28;20474;-75
2022/06/20 07:25:29;;;;;;;9.20;6.10;;;23.70;99.90;;;;;;4987898;28;20459;-75
2022/06/20 07:28:06;;;;;;;10.50;5.83;;;24.00;99.90;;;;;;4987662;28;20412;-75
2022/06/20 07:30:52;;;;;;;19.90;5.57;;;24.30;99.90;;;;;;4987981;28;20594;-75
2022/06/20 07:33:29;;;;;;;13.03;5.30;;;24.50;99.90;;;;;;4988203;28;20861;-75
2022/06/20 07:35:57;;;;;;;9.73;5.20;;;24.60;99.90;;;;;;4988098;28;20423;-75
2022/06/20 07:38:33;;;;;;;10.87;5.47;;;24.70;99.90;;;;;;4988373;28;20519;-75
2022/06/20 07:41:07;;;;;;;15.70;5.30;;;24.70;99.90;;;;;;4988190;28;20432;-75
2022/06/20 07:43:56;;;;;;;10.63;5.07;;;25.00;99.90;;;;;;4988206;28;20442;-75
2022/06/20 07:46:41;;;;;;;9.10;4.87;;;25.20;99.90;;;;;;4980309;28;21009;-75
2022/06/20 07:49:16;;;;;;;10.73;5.87;;;25.50;99.90;;;;;;4988170;28;20885;-76
2022/06/20 07:51:45;;;;;;;9.93;4.30;;;25.40;99.90;;;;;;4987481;28;20471;-75
2022/06/20 07:54:27;;;;;;;7.80;4.70;;;25.40;99.90;;;;;;4988145;28;20446;-75
2022/06/20 07:57:19;;;;;;;7.77;5.00;;;25.40;99.90;;;;;;4988092;28;20421;-75
2022/06/20 07:59:56;;;;;;;8.93;4.80;;;25.40;99.90;;;;;;4988134;28;20539;-75
2022/06/20 08:02:42;;;;;;;9.23;4.80;;;25.60;99.90;;;;;;4988241;28;20482;-75
2022/06/20 08:05:14;;;;;;;7.37;4.53;;;25.70;99.90;;;;;;4988254;28;20556;-75
2022/06/20 08:07:48;;;;;;;13.57;5.53;;;25.70;99.90;;;;;;4988368;28;20416;-75
2022/06/20 08:10:36;;;;;;;10.27;5.00;;;25.60;99.90;;;;;;4988273;28;20428;-76
2022/06/20 08:13:10;;;;;;;9.87;4.80;;;25.70;99.90;;;;;;4987908;28;20475;-75
2022/06/20 08:15:54;;;;;;;6.53;4.80;;;25.70;99.90;;;;;;4988235;28;20428;-75
2022/06/20 08:18:21;;;;;;;12.03;5.87;;;25.90;99.90;;;;;;4987992;28;20428;-75
2022/06/20 08:20:53;;;;;;;6.83;5.33;;;26.20;99.90;;;;;;4986272;28;20437;-76
2022/06/20 08:23:28;;;;;;;8.10;5.30;;;26.40;99.90;;;;;;4989128;28;20479;-76
2022/06/20 08:26:01;;;;;;;16.53;6.30;;;26.40;99.90;;;;;;4991888;28;20876;-75
2022/06/20 08:28:40;;;;;;;11.37;5.57;;;26.50;99.90;;;;;;4991496;28;20504;-75
2022/06/20 08:31:23;;;;;;;8.63;5.30;;;26.60;99.90;;;;;;4989447;28;20524;-75
2022/06/20 08:34:22;;;;;;;12.43;5.57;;;26.80;98.90;;;;;;4991165;28;20437;-75
2022/06/20 08:37:14;;;;;;;7.70;5.37;;;27.00;99.50;;;;;;4990848;28;20413;-75
2022/06/20 08:39:56;;;;;;;9.73;5.20;;;27.20;99.80;;;;;;4988996;28;20425;-75
2022/06/20 08:42:48;;;;;;;9.00;5.43;;;27.40;98.40;;;;;;4990460;28;20405;-75
2022/06/20 08:45:35;;;;;;;10.67;5.47;;;27.60;98.90;;;;;;4990321;28;20425;-75
2022/06/20 08:48:35;;;;;;;8.77;5.77;;;27.90;97.40;;;;;;4990625;28;20409;-75
2022/06/20 08:51:26;;;;;;;9.40;5.63;;;28.00;96.70;;;;;;4990397;28;20784;-76
2022/06/20 08:54:13;;;;;;;7.60;6.30;;;28.10;96.20;;;;;;4990164;28;20906;-75
2022/06/20 08:56:51;;;;;;;11.43;6.00;;;28.20;96.70;;;;;;4990029;28;20843;-75
2022/06/20 08:59:46;;;;;;;11.53;5.70;;;28.30;95.90;;;;;;4990120;28;20782;-75
2022/06/20 09:02:49;;;;;;;9.20;5.43;;;28.20;95.50;;;;;;5004662;28;20512;-75
2022/06/20 09:05:44;;;;;;;12.47;5.43;;;28.40;94.10;;;;;;4990348;28;20445;-75
2022/06/20 09:08:12;;;;;;;12.93;6.10;;;28.80;94.00;;;;;;4990477;28;20980;-76
2022/06/20 09:10:50;;;;;;;12.47;5.33;;;29.00;93.50;;;;;;4990637;28;20413;-76
2022/06/20 09:13:18;;;;;;;10.23;5.40;;;29.10;93.70;;;;;;4990266;28;20480;-76
2022/06/20 09:16:02;;;;;;;11.43;6.00;;;29.30;92.80;;;;;;4990626;28;20841;-76
2022/06/20 09:18:40;;;;;;;12.40;5.87;;;29.80;93.30;;;;;;4990671;28;20488;-76
2022/06/20 09:21:27;;;;;;;9.10;5.60;;;30.00;93.30;;;;;;4990633;28;20419;-76
2022/06/20 09:24:28;;;;;;;15.43;6.50;;;29.90;92.80;;;;;;5005399;28;20456;-77
2022/06/20 09:27:11;;;;;;;9.10;5.83;;;29.90;90.80;;;;;;4987610;28;20427;-76
2022/06/20 09:30:05;;;;;;;13.37;5.83;;;30.30;91.80;;;;;;4989078;28;20762;-75
2022/06/20 09:32:52;;;;;;;9.27;6.17;;;30.40;92.40;;;;;;4990331;28;20456;-76
2022/06/20 09:35:30;;;;;;;8.63;6.00;;;30.30;88.20;;;;;;4990024;28;20425;-75
2022/06/20 09:38:43;;;;;;;13.57;6.43;;;30.70;90.50;;;;;;4990367;28;20422;-76
2022/06/20 09:41:38;;;;;;;10.47;5.23;;;30.70;90.50;;;;;;4929790;29;20430;-76
2022/06/20 09:44:42;;;;;;;9.30;5.03;;;31.20;91.10;;;;;;4987686;28;20444;-76
2022/06/20 09:47:52;;;;;;;13.70;5.07;;;31.20;86.90;;;;;;4987166;28;20428;-76
2022/06/20 09:50:37;;;;;;;14.03;7.27;;;30.90;86.80;;;;;;4966851;28;20865;-75
2022/06/20 09:53:03;;;;;;;8.83;7.37;;;30.60;93.60;;;;;;4990084;28;21116;-75
2022/06/20 09:55:55;;;;;;;8.30;5.47;;;30.50;95.00;;;;;;4988658;28;21044;-76
2022/06/20 09:58:38;;;;;;;12.20;5.30;;;30.60;92.10;;;;;;4990049;28;20408;-75
2022/06/20 10:01:10;;;;;;;7.60;4.80;;;30.80;88.50;;;;;;4989823;28;20409;-75
2022/06/20 10:04:00;;;;;;;9.67;5.03;;;31.10;88.00;;;;;;4988323;28;20448;-75
2022/06/20 10:06:39;;;;;;;10.13;4.70;;;31.30;86.40;;;;;;4990084;28;20595;-75
2022/06/20 10:09:16;;;;;;;8.80;4.57;;;31.50;80.90;;;;;;4990187;28;20413;-76
2022/06/20 10:12:16;;;;;;;7.77;4.70;;;31.80;81.60;;;;;;4988741;28;20463;-75
2022/06/20 10:15:01;;;;;;;10.63;4.80;;;32.20;81.00;;;;;;4991012;28;20471;-77
2022/06/20 10:17:43;;;;;;;8.67;5.30;;;32.20;76.90;;;;;;4991097;28;20981;-77
2022/06/20 10:20:29;;;;;;;9.83;4.77;;;32.00;77.00;;;;;;4991749;28;20417;-76
2022/06/20 10:23:04;;;;;;;8.33;4.50;;;32.10;76.00;;;;;;5007125;28;20429;-77
2022/06/20 10:26:15;;;;;;;7.23;4.77;;;32.10;76.20;;;;;;4989527;28;20944;-76
2022/06/20 10:28:46;;;;;;;9.27;5.00;;;32.40;77.00;;;;;;4989122;28;20438;-77
2022/06/20 10:31:18;;;;;;;15.80;4.90;;;32.60;79.40;;;;;;4989314;28;20417;-77
2022/06/20 10:34:03;;;;;;;10.50;5.60;;;32.20;75.10;;;;;;4987613;28;20476;-76
2022/06/20 10:36:51;;;;;;;8.87;5.13;;;31.80;78.30;;;;;;4988709;28;20459;-77
2022/06/20 10:39:54;;;;;;;8.93;4.57;;;32.20;78.10;;;;;;4989983;28;20418;-76
2022/06/20 10:42:31;;;;;;;10.40;5.60;;;32.50;78.90;;;;;;4988512;28;20421;-76
2022/06/20 10:45:05;;;;;;;8.33;5.10;;;32.80;76.60;;;;;;4989690;28;20432;-75
2022/06/20 10:47:48;;;;;;;7.40;4.10;;;32.70;74.40;;;;;;4987334;28;20517;-75
2022/06/20 10:51:10;;;;;;;11.53;4.43;;;32.90;71.00;;;;;;4989427;28;20413;-76
2022/06/20 10:53:54;;;;;;;9.80;4.40;;;33.10;70.80;;;;;;4928860;29;20483;-75
2022/06/20 10:56:29;;;;;;;9.60;4.10;;;33.20;68.70;;;;;;4928886;29;20424;-75
2022/06/20 10:59:22;;;;;;;6.50;4.27;;;33.30;69.40;;;;;;4975453;28;20432;-76
2022/06/20 11:02:03;;;;;;;14.73;4.40;;;33.40;70.50;;;;;;4989442;28;20783;-76
2022/06/20 11:04:57;;;;;;;8.63;4.60;;;33.30;68.80;;;;;;4988084;28;20436;-75
2022/06/20 11:07:42;;;;;;;8.50;3.73;;;33.10;68.20;;;;;;4989532;28;20467;-75
2022/06/20 11:10:10;;;;;;;18.37;4.03;;;32.60;67.80;;;;;;4989341;28;20837;-75
2022/06/20 11:12:54;;;;;;;12.33;4.63;;;32.60;68.00;;;;;;4987650;28;20465;-76
2022/06/20 11:15:40;;;;;;;7.77;4.07;;;32.20;69.40;;;;;;4989145;28;20421;-76
2022/06/20 11:18:21;;;;;;;5.87;4.10;;;32.30;70.60;;;;;;4988754;28;20418;-75
2022/06/20 11:21:19;;;;;;;5.83;4.50;;;32.10;69.40;;;;;;4988588;28;20847;-75
2022/06/20 11:23:59;;;;;;;10.50;4.13;;;32.10;69.70;;;;;;4962996;28;20437;-75
2022/06/20 11:27:03;;;;;;;8.27;5.30;;;31.90;71.20;;;;;;4988543;28;20440;-75
2022/06/20 11:29:54;;;;;;;12.27;5.53;;;31.50;76.80;;;;;;4969484;28;20423;-74
2022/06/20 11:32:53;;;;;;;7.73;5.70;;;31.00;81.40;;;;;;4988512;28;21142;-75
2022/06/20 11:35:33;;;;;;;10.23;5.70;;;31.20;82.50;;;;;;4955628;28;20440;-75
2022/06/20 11:38:16;;;;;;;13.60;6.63;;;31.80;82.80;;;;;;4988453;28;20416;-75
2022/06/20 11:40:56;;;;;;;13.37;6.93;;;31.20;85.10;;;;;;4988578;28;20413;-75
2022/06/20 11:43:33;;;;;;;20.17;6.23;;;30.90;85.20;;;;;;4988555;28;20973;-75
2022/06/20 11:46:13;;;;;;;22.07;7.00;;;30.20;87.00;;;;;;4988367;28;20420;-75
2022/06/20 11:49:00;;;;;;;12.33;6.43;;;29.90;88.30;;;;;;4988732;28;20826;-74
2022/06/20 11:51:32;;;;;;;21.00;6.40;;;29.60;90.30;;;;;;4988704;28;20413;-74
2022/06/20 11:54:41;;;;;;;9.43;5.80;;;29.60;90.40;;;;;;4988873;28;20443;-74
2022/06/20 11:57:24;;;;;;;9.73;6.73;;;29.70;90.70;;;;;;4958499;28;20443;-75
2022/06/20 12:00:05;;;;;;;14.50;6.37;;;29.50;91.60;;;;;;4992033;28;20408;-75
2022/06/20 12:02:49;;;;;;;8.03;5.67;;;29.40;91.80;;;;;;4992295;28;20420;-75
2022/06/20 12:05:20;;;;;;;6.47;5.13;;;29.20;91.60;;;;;;5007335;28;20431;-75
2022/06/20 12:08:24;;;;;;;12.70;5.17;;;29.10;91.20;;;;;;4997906;28;20440;-75
2022/06/20 12:10:56;;;;;;;8.57;4.77;;;28.90;90.70;;;;;;4993282;28;20474;-75
2022/06/20 12:13:24;;;;;;;9.70;4.57;;;28.60;91.10;;;;;;4992512;28;20583;-75
2022/06/20 12:16:30;;;;;;;5.43;3.60;;;28.30;90.30;;;;;;4992499;28;20412;-74
2022/06/20 12:25:28;;;;;;;8.97;3.90;;;27.90;90.40;;;;;;4994663;28;20416;-75
2022/06/20 12:27:53;;;;;;;6.17;3.83;;;27.60;91.50;;;;;;4988857;28;20429;-75
2022/06/20 12:30:20;;;;;;;10.30;4.10;;;27.50;91.10;;;;;;4990636;28;20479;-75
2022/06/20 12:32:50;;;;;;;17.83;4.00;;;27.60;91.40;;;;;;4990134;28;20472;-76
2022/06/20 12:35:25;;;;;;;8.93;4.10;;;27.70;91.50;;;;;;4991921;28;20425;-75
2022/06/20 12:38:04;;;;;;;13.70;4.60;;;27.40;91.70;;;;;;4992091;28;20468;-76
2022/06/20 12:40:44;;;;;;;11.50;4.67;;;27.30;93.50;;;;;;4991519;28;20896;-75
2022/06/20 12:43:18;;;;;;;12.70;4.87;;;27.30;94.10;;;;;;4990800;28;20441;-75
2022/06/20 12:45:56;;;;;;;12.03;4.87;;;27.20;94.30;;;;;;4990923;28;20487;-75
2022/06/20 12:48:30;;;;;;;16.83;4.87;;;27.00;94.90;;;;;;4990797;28;20790;-75
2022/06/20 12:51:08;;;;;;;9.20;4.10;;;27.10;95.50;;;;;;4988902;28;20444;-75
2022/06/20 12:54:02;;;;;;;9.37;4.73;;;26.80;95.70;;;;;;4990265;28;20851;-75
2022/06/20 12:56:57;;;;;;;12.40;5.00;;;26.80;96.00;;;;;;4990859;28;20421;-75
2022/06/20 12:59:49;;;;;;;9.13;3.67;;;26.60;95.90;;;;;;4990943;28;20429;-75
2022/06/20 13:02:42;;;;;;;12.33;3.43;;;26.40;95.90;;;;;;4962603;28;20429;-75
2022/06/20 13:05:45;;;;;;;11.30;3.57;;;26.40;94.90;;;;;;4990622;28;20409;-75
2022/06/20 13:08:20;;;;;;;5.80;2.33;;;26.50;95.20;;;;;;4990445;28;20420;-75
2022/06/20 13:11:16;;;;;;;8.10;2.97;;;26.40;94.90;;;;;;4989967;28;20788;-75
2022/06/20 13:14:16;;;;;;;9.00;2.60;;;26.30;94.30;;;;;;4990189;28;20492;-75
2022/06/20 13:17:00;;;;;;;9.43;2.40;;;25.90;94.20;;;;;;4990843;28;20805;-75
2022/06/20 13:19:48;;;;;;;4.13;1.97;;;25.60;95.00;;;;;;4990304;28;20424;-75
2022/06/20 13:22:32;;;;;;;6.17;2.80;;;25.40;95.90;;;;;;4990301;28;20428;-75
2022/06/20 13:25:18;;;;;;;6.37;2.77;;;25.50;95.90;;;;;;4990116;28;20467;-74
2022/06/20 13:28:14;;;;;;;8.30;3.07;;;25.60;95.90;;;;;;4990507;28;20850;-75
2022/06/20 13:31:09;;;;;;;14.43;3.40;;;25.70;96.90;;;;;;4984765;28;20509;-75
2022/06/20 13:33:50;;;;;;;6.43;3.40;;;26.00;98.10;;;;;;4990674;28;20520;-75
2022/06/20 13:36:40;;;;;;;10.50;4.33;;;26.80;96.30;;;;;;4990551;28;20854;-75
2022/06/20 13:39:25;;;;;;;5.10;3.57;;;27.30;95.90;;;;;;4990415;28;20416;-75
2022/06/20 13:41:55;;;;;;;9.13;4.07;;;27.50;95.00;;;;;;4989957;28;20436;-75
2022/06/20 13:44:54;;;;;;;15.03;4.97;;;27.50;95.20;;;;;;4989791;28;20519;-75
2022/06/20 13:47:29;;;;;;;8.90;4.50;;;27.20;95.70;;;;;;4988242;28;20425;-75
2022/06/20 13:50:15;;;;;;;10.60;4.00;;;27.00;96.00;;;;;;4989787;28;20838;-75